Pescara - LIBP

Metar : METAR LIBP 211550Z 03005KT CAVOK 13/00 Q1025=

Taf : TAF LIBP 211100Z 2112/2212 VRB05KT CAVOK=

 Scopri come leggere i bollettini codificati...


Storico

LIBP 211550Z 03005KT CAVOK 13/00 Q1025
LIBP 211350Z 04007KT CAVOK 15/02 Q1024
LIBP 211250Z 07008KT CAVOK 15/M00 Q1023
LIBP 211150Z 05009KT CAVOK 15/M00 Q1024
LIBP 211050Z 05008KT CAVOK 14/01 Q1024
LIBP 210950Z VRB01KT CAVOK 14/M02 Q1023
LIBP 210850Z 21007KT 190V250 CAVOK 11/M01 Q1023
LIBP 210750Z 20006KT CAVOK 05/M00 Q1024
LIBP 210650Z 22003KT CAVOK 01/M01 Q1023
LIBP 210450Z AUTO 23004KT 9999 NCD M00/M02 Q1023
LIBP 210250Z AUTO 21007KT 9999 NCD 00/M02 Q1024
LIBP 210150Z AUTO 21006KT 9999 NCD 01/M02 Q1025
LIBP 202050Z 24005KT CAVOK 04/M01 Q1026
LIBP 201950Z 24003KT 210V270 CAVOK 05/M01 Q1026
LIBP 201922Z 24004KT CAVOK 06/M01 Q1026
LIBP 201912Z 21005KT CAVOK 05/M02 Q1026
LIBP 201850Z 22005KT CAVOK 05/M01 Q1026
LIBP 201812Z 24004KT CAVOK 07/M01 Q1025
LIBP 201750Z 24003KT CAVOK 10/M01 Q1025
LIBP 201650Z 35006KT 320V020 CAVOK 10/M03 Q1025
LIBP 201250Z 02010KT CAVOK 13/02 Q1024
LIBP 201150Z 01009KT 310V040 CAVOK 13/03 Q1025
LIBP 201050Z 35011KT 320V020 CAVOK 13/02 Q1025
LIBP 200950Z 35010KT 310V030 CAVOK 13/04 Q1025
LIBP 200850Z 33008KT 290V010 9999 FEW050 12/03 Q1025
LIBP 200750Z 30007KT 9999 FEW080 10/03 Q1024
LIBP 200650Z 30005KT 280V340 CAVOK 09/03 Q1024
LIBP 200550Z AUTO 30006KT 270V330 9999 FEW084/// 09/04 Q1023
LIBP 200450Z AUTO 30006KT 260V340 9999 FEW048/// BKN064/// 09/04 Q1022
LIBP 200350Z AUTO 32007KT 280V360 9999 FEW038/// BKN083/// 09/05 Q1022
LIBP 200250Z AUTO 32010KT 290V360 9999 OVC049/// 10/05 Q1021
LIBP 200238Z AUTO 33010KT 290V360 9999 FEW057/// OVC086/// 10/05 Q1021
LIBP 200150Z AUTO 20004KT 9999 BKN070/// BKN110/// 06/05 Q1021
LIBP 200050Z AUTO 24004KT 9999 NCD 05/04 Q1020
LIBP 192350Z AUTO 20006KT 6000 NCD 04/04 Q1020
LIBP 192304Z AUTO 21004KT 3800 BR NCD 05/04 Q1020
LIBP 192253Z AUTO 21004KT 2500 BR NCD 04/04 Q1020
LIBP 192250Z AUTO 21003KT 3000 BR NCD 04/04 Q1020
LIBP 192150Z 19004KT CAVOK 06/05 Q1019
LIBP 192050Z 23005KT CAVOK 07/07 Q1019
LIBP 191950Z 20003KT CAVOK 08/07 Q1019
LIBP 191850Z 24003KT CAVOK 09/08 Q1019
LIBP 191750Z 31004KT 280V360 5000 -RA BKN020 11/10 Q1019
LIBP 191650Z VRB02KT 5000 RA SCT050 BKN080 12/10 Q1018
LIBP 191614Z 34005KT 310V010 5000 RA BKN035 12/10 Q1018
LIBP 191550Z 02009KT 8000 VCTS SCT050CB BKN100 13/09 Q1017
LIBP 191450Z 09006KT 050V130 CAVOK 15/09 Q1016
LIBP 191350Z 06007KT 9999 FEW060 14/09 Q1017
LIBP 191250Z 05006KT 9999 SCT075 13/09 Q1018
LIBP 191150Z 03008KT 9999 SCT060 14/08 Q1019
LIBP 191050Z VRB05KT 9999 FEW060 15/08 Q1020
LIBP 190950Z 24003KT 160V330 9999 FEW055 14/08 Q1021
LIBP 190850Z 24004KT 9999 FEW055 11/06 Q1021
LIBP 190750Z 22004KT 9999 BKN016 07/05 Q1022
LIBP 190650Z 21006KT CAVOK 05/04 Q1021
LIBP 190550Z AUTO 21005KT 9999 NCD 04/03 Q1021
LIBP 190450Z AUTO 21004KT 9999 FEW025/// 05/04 Q1021
LIBP 190350Z AUTO VRB02KT 9999 SCT015/// SCT069/// 06/04 Q1022
LIBP 190250Z AUTO 23005KT 9999 FEW068/// 06/04 Q1022
LIBP 190150Z AUTO 21004KT 9999 NCD 06/04 Q1022
LIBP 190050Z AUTO VRB02KT 9999 FEW031/// 07/04 Q1023
LIBP 182350Z AUTO 23003KT 9999 BKN081/// 08/04 Q1023
LIBP 182250Z AUTO 23004KT 9999 BKN080/// 08/04 Q1023
LIBP 182150Z AUTO 24006KT 9999 FEW051/// BKN076/// 08/04 Q1023
LIBP 182050Z AUTO 23004KT 9999 BKN063/// 08/04 Q1024
LIBP 181950Z AUTO 24004KT 9999 SCT060/// 09/04 Q1024
LIBP 181850Z AUTO 21005KT 9999 BKN072/// 09/04 Q1024
LIBP 181750Z AUTO VRB01KT 9999 BKN073/// 11/04 Q1023
LIBP 181650Z 02004KT CAVOK 13/05 Q1023
LIBP 181550Z 03004KT CAVOK 15/03 Q1022
LIBP 181450Z 05006KT CAVOK 17/04 Q1022
LIBP 181350Z 05008KT CAVOK 17/04 Q1022
LIBP 181250Z 05008KT CAVOK 17/04 Q1022
LIBP 181150Z 06004KT 030V100 CAVOK 17/03 Q1023
LIBP 181050Z 05004KT 360V100 CAVOK 17/02 Q1024
LIBP 180950Z VRB02KT CAVOK 15/03 Q1025
LIBP 180850Z 23004KT CAVOK 11/03 Q1025
LIBP 180750Z 21004KT CAVOK 06/03 Q1025
LIBP 180650Z 21004KT CAVOK 03/02 Q1025
LIBP 180550Z AUTO 23004KT 8000 NCD 02/01 Q1024
LIBP 180450Z AUTO 22005KT 8000 NCD 02/01 Q1024
LIBP 180350Z AUTO 23005KT 9000 NCD 02/01 Q1024
LIBP 180250Z AUTO 25003KT 9999 NCD 02/01 Q1024
LIBP 180150Z AUTO 23004KT 9000 NCD 03/02 Q1023
LIBP 180050Z AUTO 22005KT 7000 NCD 02/01 Q1024
LIBP 172350Z AUTO 20005KT 8000 NCD 03/02 Q1024
LIBP 172250Z AUTO 22003KT 8000 NCD 04/02 Q1024

Informazioni elaborate utilizzando, tra l’altro, dati e prodotti del Servizio Meteorologico dell’Aeronautica Militare pubblicati sul sito www.meteoam.it e della National Oceanic and Atmospheric Administration (NOAA)

Ultimi caricamenti...


EI-ESP Boeing 737-800 Ryanair

 


EI-FOV Boeing 737-800 Ryanair

 


N863AH Saudi Aramco AgustaWestland AW-139

Questo sito non utilizza cookie di profilazione. Il sito utilizza cookie tecnici, di analisi anonima di prima parte e di terze parti per servizi di social network.